sensor_id;sensor_type;location;lat;lon;timestamp;P1;durP1;ratioP1;P2;durP2;ratioP2
27889;SDS011;15238;49.082;9.102;2023-07-13T00:01:45;5.10;;;0.70;;
27889;SDS011;15238;49.082;9.102;2023-07-13T00:03:49;4.45;;;1.05;;
27889;SDS011;15238;49.082;9.102;2023-07-13T00:05:57;3.58;;;1.00;;
27889;SDS011;15238;49.082;9.102;2023-07-13T00:07:58;3.03;;;0.88;;
27889;SDS011;15238;49.082;9.102;2023-07-13T00:09:59;1.98;;;0.98;;
27889;SDS011;15238;49.082;9.102;2023-07-13T00:11:59;3.75;;;1.00;;
27889;SDS011;15238;49.082;9.102;2023-07-13T00:14:00;3.88;;;1.00;;
27889;SDS011;15238;49.082;9.102;2023-07-13T00:16:01;5.72;;;0.88;;
27889;SDS011;15238;49.082;9.102;2023-07-13T00:18:01;5.72;;;0.90;;
27889;SDS011;15238;49.082;9.102;2023-07-13T00:20:02;6.18;;;0.80;;
27889;SDS011;15238;49.082;9.102;2023-07-13T00:22:04;2.05;;;0.82;;
27889;SDS011;15238;49.082;9.102;2023-07-13T00:24:05;4.13;;;0.70;;
27889;SDS011;15238;49.082;9.102;2023-07-13T00:26:07;2.92;;;0.55;;
27889;SDS011;15238;49.082;9.102;2023-07-13T00:28:09;7.53;;;1.05;;
27889;SDS011;15238;49.082;9.102;2023-07-13T00:30:10;2.15;;;1.10;;
27889;SDS011;15238;49.082;9.102;2023-07-13T00:32:11;7.45;;;0.80;;
27889;SDS011;15238;49.082;9.102;2023-07-13T00:34:11;1.98;;;0.80;;
27889;SDS011;15238;49.082;9.102;2023-07-13T00:36:12;2.63;;;0.88;;
27889;SDS011;15238;49.082;9.102;2023-07-13T00:38:13;8.40;;;1.02;;
27889;SDS011;15238;49.082;9.102;2023-07-13T00:40:13;2.08;;;1.10;;
27889;SDS011;15238;49.082;9.102;2023-07-13T00:42:15;2.97;;;0.85;;
27889;SDS011;15238;49.082;9.102;2023-07-13T00:44:19;2.90;;;0.75;;
27889;SDS011;15238;49.082;9.102;2023-07-13T00:46:25;4.90;;;0.77;;
27889;SDS011;15238;49.082;9.102;2023-07-13T00:48:27;2.13;;;0.93;;
27889;SDS011;15238;49.082;9.102;2023-07-13T00:50:31;1.90;;;0.77;;
27889;SDS011;15238;49.082;9.102;2023-07-13T00:52:32;4.32;;;1.05;;
27889;SDS011;15238;49.082;9.102;2023-07-13T00:54:39;2.83;;;0.73;;
27889;SDS011;15238;49.082;9.102;2023-07-13T00:56:43;3.13;;;0.80;;
27889;SDS011;15238;49.082;9.102;2023-07-13T00:58:45;3.30;;;1.60;;
27889;SDS011;15238;49.082;9.102;2023-07-13T01:00:46;2.30;;;0.75;;
27889;SDS011;15238;49.082;9.102;2023-07-13T01:02:48;1.80;;;0.95;;
27889;SDS011;15238;49.082;9.102;2023-07-13T01:04:49;4.85;;;1.13;;
27889;SDS011;15238;49.082;9.102;2023-07-13T01:06:50;3.40;;;0.80;;
27889;SDS011;15238;49.082;9.102;2023-07-13T01:08:51;2.35;;;0.80;;
27889;SDS011;15238;49.082;9.102;2023-07-13T01:10:55;1.70;;;0.80;;
27889;SDS011;15238;49.082;9.102;2023-07-13T01:12:58;8.55;;;1.33;;
27889;SDS011;15238;49.082;9.102;2023-07-13T01:14:59;2.00;;;0.70;;
27889;SDS011;15238;49.082;9.102;2023-07-13T01:17:01;3.25;;;0.80;;
27889;SDS011;15238;49.082;9.102;2023-07-13T01:19:37;4.15;;;1.00;;
27889;SDS011;15238;49.082;9.102;2023-07-13T01:21:39;2.00;;;0.90;;
27889;SDS011;15238;49.082;9.102;2023-07-13T01:23:42;4.53;;;0.70;;
27889;SDS011;15238;49.082;9.102;2023-07-13T01:25:44;1.98;;;0.70;;
27889;SDS011;15238;49.082;9.102;2023-07-13T01:27:45;6.20;;;0.88;;
27889;SDS011;15238;49.082;9.102;2023-07-13T01:29:46;3.90;;;0.70;;
27889;SDS011;15238;49.082;9.102;2023-07-13T01:31:47;3.17;;;0.98;;
27889;SDS011;15238;49.082;9.102;2023-07-13T01:33:48;2.90;;;0.80;;
27889;SDS011;15238;49.082;9.102;2023-07-13T01:35:48;3.10;;;0.90;;
27889;SDS011;15238;49.082;9.102;2023-07-13T01:37:49;2.55;;;1.00;;
27889;SDS011;15238;49.082;9.102;2023-07-13T01:39:49;2.17;;;0.95;;
27889;SDS011;15238;49.082;9.102;2023-07-13T01:41:50;1.33;;;0.75;;
27889;SDS011;15238;49.082;9.102;2023-07-13T01:43:51;3.72;;;0.75;;
27889;SDS011;15238;49.082;9.102;2023-07-13T01:45:51;3.70;;;1.05;;
27889;SDS011;15238;49.082;9.102;2023-07-13T01:47:52;2.33;;;1.20;;
27889;SDS011;15238;49.082;9.102;2023-07-13T01:49:52;5.18;;;1.33;;
27889;SDS011;15238;49.082;9.102;2023-07-13T01:51:53;5.47;;;1.30;;
27889;SDS011;15238;49.082;9.102;2023-07-13T01:53:53;3.33;;;0.88;;
27889;SDS011;15238;49.082;9.102;2023-07-13T01:55:54;3.72;;;0.80;;
27889;SDS011;15238;49.082;9.102;2023-07-13T01:57:55;4.95;;;1.25;;
27889;SDS011;15238;49.082;9.102;2023-07-13T01:59:56;3.65;;;0.98;;
27889;SDS011;15238;49.082;9.102;2023-07-13T02:01:56;2.22;;;0.88;;
27889;SDS011;15238;49.082;9.102;2023-07-13T02:03:57;6.20;;;1.00;;
27889;SDS011;15238;49.082;9.102;2023-07-13T02:05:57;5.20;;;0.95;;
27889;SDS011;15238;49.082;9.102;2023-07-13T02:07:58;5.25;;;0.98;;
27889;SDS011;15238;49.082;9.102;2023-07-13T02:09:58;2.33;;;1.08;;
27889;SDS011;15238;49.082;9.102;2023-07-13T02:11:59;6.10;;;1.15;;
27889;SDS011;15238;49.082;9.102;2023-07-13T02:14:00;1.45;;;0.85;;
27889;SDS011;15238;49.082;9.102;2023-07-13T02:16:01;5.88;;;0.90;;
27889;SDS011;15238;49.082;9.102;2023-07-13T02:18:02;2.33;;;1.02;;
27889;SDS011;15238;49.082;9.102;2023-07-13T02:20:04;3.90;;;1.10;;
27889;SDS011;15238;49.082;9.102;2023-07-13T02:22:05;3.25;;;1.00;;
27889;SDS011;15238;49.082;9.102;2023-07-13T02:24:05;1.67;;;0.70;;
27889;SDS011;15238;49.082;9.102;2023-07-13T02:26:06;6.70;;;1.38;;
27889;SDS011;15238;49.082;9.102;2023-07-13T02:28:07;3.08;;;1.10;;
27889;SDS011;15238;49.082;9.102;2023-07-13T02:30:07;5.00;;;0.90;;
27889;SDS011;15238;49.082;9.102;2023-07-13T02:32:09;3.72;;;1.20;;
27889;SDS011;15238;49.082;9.102;2023-07-13T02:34:10;4.47;;;0.85;;
27889;SDS011;15238;49.082;9.102;2023-07-13T02:36:10;2.95;;;0.75;;
27889;SDS011;15238;49.082;9.102;2023-07-13T02:38:12;2.88;;;1.25;;
27889;SDS011;15238;49.082;9.102;2023-07-13T02:40:12;5.82;;;1.02;;
27889;SDS011;15238;49.082;9.102;2023-07-13T02:42:13;4.07;;;0.98;;
27889;SDS011;15238;49.082;9.102;2023-07-13T02:44:14;6.80;;;1.40;;
27889;SDS011;15238;49.082;9.102;2023-07-13T02:46:15;1.98;;;1.17;;
27889;SDS011;15238;49.082;9.102;2023-07-13T02:48:15;1.60;;;0.90;;
27889;SDS011;15238;49.082;9.102;2023-07-13T02:50:16;3.15;;;0.93;;
27889;SDS011;15238;49.082;9.102;2023-07-13T02:52:17;2.58;;;0.73;;
27889;SDS011;15238;49.082;9.102;2023-07-13T02:54:18;2.97;;;0.80;;
27889;SDS011;15238;49.082;9.102;2023-07-13T02:56:25;2.92;;;1.23;;
27889;SDS011;15238;49.082;9.102;2023-07-13T02:58:27;2.60;;;1.08;;
27889;SDS011;15238;49.082;9.102;2023-07-13T03:00:28;4.50;;;1.77;;
27889;SDS011;15238;49.082;9.102;2023-07-13T03:02:28;2.35;;;1.02;;
27889;SDS011;15238;49.082;9.102;2023-07-13T03:04:30;3.75;;;0.85;;
27889;SDS011;15238;49.082;9.102;2023-07-13T03:06:31;4.15;;;1.02;;
27889;SDS011;15238;49.082;9.102;2023-07-13T03:08:33;2.38;;;1.02;;
27889;SDS011;15238;49.082;9.102;2023-07-13T03:10:34;6.30;;;1.30;;
27889;SDS011;15238;49.082;9.102;2023-07-13T03:12:34;4.35;;;1.10;;
27889;SDS011;15238;49.082;9.102;2023-07-13T03:14:35;6.03;;;1.10;;
27889;SDS011;15238;49.082;9.102;2023-07-13T03:16:36;2.85;;;1.40;;
27889;SDS011;15238;49.082;9.102;2023-07-13T03:18:36;7.50;;;1.48;;
27889;SDS011;15238;49.082;9.102;2023-07-13T03:20:37;4.32;;;1.20;;
27889;SDS011;15238;49.082;9.102;2023-07-13T03:22:38;5.95;;;2.25;;
27889;SDS011;15238;49.082;9.102;2023-07-13T03:24:38;6.47;;;1.40;;
27889;SDS011;15238;49.082;9.102;2023-07-13T03:26:39;3.35;;;2.10;;
27889;SDS011;15238;49.082;9.102;2023-07-13T03:28:39;6.07;;;1.02;;
27889;SDS011;15238;49.082;9.102;2023-07-13T03:30:41;5.90;;;1.50;;
27889;SDS011;15238;49.082;9.102;2023-07-13T03:32:41;3.60;;;1.17;;
27889;SDS011;15238;49.082;9.102;2023-07-13T03:34:42;4.53;;;1.50;;
27889;SDS011;15238;49.082;9.102;2023-07-13T03:36:42;4.55;;;1.20;;
27889;SDS011;15238;49.082;9.102;2023-07-13T03:38:43;4.40;;;1.42;;
27889;SDS011;15238;49.082;9.102;2023-07-13T03:40:43;4.50;;;1.60;;
27889;SDS011;15238;49.082;9.102;2023-07-13T03:42:44;4.43;;;1.73;;
27889;SDS011;15238;49.082;9.102;2023-07-13T03:44:45;5.72;;;1.90;;
27889;SDS011;15238;49.082;9.102;2023-07-13T03:46:52;6.38;;;1.58;;
27889;SDS011;15238;49.082;9.102;2023-07-13T03:48:52;7.43;;;2.13;;
27889;SDS011;15238;49.082;9.102;2023-07-13T03:50:53;5.75;;;2.03;;
27889;SDS011;15238;49.082;9.102;2023-07-13T03:52:53;7.43;;;2.42;;
27889;SDS011;15238;49.082;9.102;2023-07-13T03:54:55;8.30;;;2.58;;
27889;SDS011;15238;49.082;9.102;2023-07-13T03:56:56;5.10;;;1.55;;
27889;SDS011;15238;49.082;9.102;2023-07-13T03:58:57;2.05;;;1.00;;
27889;SDS011;15238;49.082;9.102;2023-07-13T04:00:57;4.35;;;1.73;;
27889;SDS011;15238;49.082;9.102;2023-07-13T04:02:59;3.72;;;1.65;;
27889;SDS011;15238;49.082;9.102;2023-07-13T04:05:00;7.75;;;2.00;;
27889;SDS011;15238;49.082;9.102;2023-07-13T04:07:00;10.98;;;3.33;;
27889;SDS011;15238;49.082;9.102;2023-07-13T04:09:02;7.22;;;2.60;;
27889;SDS011;15238;49.082;9.102;2023-07-13T04:11:05;7.97;;;2.28;;
27889;SDS011;15238;49.082;9.102;2023-07-13T04:13:06;7.85;;;2.50;;
27889;SDS011;15238;49.082;9.102;2023-07-13T04:15:07;6.63;;;2.17;;
27889;SDS011;15238;49.082;9.102;2023-07-13T04:17:08;6.20;;;2.50;;
27889;SDS011;15238;49.082;9.102;2023-07-13T04:19:08;8.40;;;2.35;;
27889;SDS011;15238;49.082;9.102;2023-07-13T04:21:10;5.70;;;1.85;;
27889;SDS011;15238;49.082;9.102;2023-07-13T04:23:11;5.82;;;2.10;;
27889;SDS011;15238;49.082;9.102;2023-07-13T04:25:11;3.88;;;1.83;;
27889;SDS011;15238;49.082;9.102;2023-07-13T04:27:12;3.85;;;1.63;;
27889;SDS011;15238;49.082;9.102;2023-07-13T04:29:12;5.10;;;1.52;;
27889;SDS011;15238;49.082;9.102;2023-07-13T04:31:13;2.95;;;1.50;;
27889;SDS011;15238;49.082;9.102;2023-07-13T04:33:14;7.15;;;1.60;;
27889;SDS011;15238;49.082;9.102;2023-07-13T04:35:16;6.50;;;1.45;;
27889;SDS011;15238;49.082;9.102;2023-07-13T04:37:17;2.78;;;1.60;;
27889;SDS011;15238;49.082;9.102;2023-07-13T04:39:18;6.18;;;1.42;;
27889;SDS011;15238;49.082;9.102;2023-07-13T04:41:18;1.98;;;1.23;;
27889;SDS011;15238;49.082;9.102;2023-07-13T04:43:19;4.40;;;1.27;;
27889;SDS011;15238;49.082;9.102;2023-07-13T04:45:20;4.53;;;1.33;;
27889;SDS011;15238;49.082;9.102;2023-07-13T04:47:21;2.35;;;1.23;;
27889;SDS011;15238;49.082;9.102;2023-07-13T04:49:21;6.82;;;1.65;;
27889;SDS011;15238;49.082;9.102;2023-07-13T04:51:22;10.77;;;1.90;;
27889;SDS011;15238;49.082;9.102;2023-07-13T04:53:22;5.55;;;1.60;;
27889;SDS011;15238;49.082;9.102;2023-07-13T04:55:23;8.48;;;1.70;;
27889;SDS011;15238;49.082;9.102;2023-07-13T04:57:24;6.50;;;1.25;;
27889;SDS011;15238;49.082;9.102;2023-07-13T04:59:24;4.80;;;1.33;;
27889;SDS011;15238;49.082;9.102;2023-07-13T05:01:25;5.32;;;1.35;;
27889;SDS011;15238;49.082;9.102;2023-07-13T05:03:25;3.20;;;1.42;;
27889;SDS011;15238;49.082;9.102;2023-07-13T05:05:26;5.85;;;2.00;;
27889;SDS011;15238;49.082;9.102;2023-07-13T05:07:27;3.78;;;1.27;;
27889;SDS011;15238;49.082;9.102;2023-07-13T05:09:28;6.57;;;1.50;;
27889;SDS011;15238;49.082;9.102;2023-07-13T05:11:28;4.68;;;1.42;;
27889;SDS011;15238;49.082;9.102;2023-07-13T05:13:29;5.57;;;1.48;;
27889;SDS011;15238;49.082;9.102;2023-07-13T05:15:29;2.22;;;1.40;;
27889;SDS011;15238;49.082;9.102;2023-07-13T05:17:30;5.50;;;1.70;;
27889;SDS011;15238;49.082;9.102;2023-07-13T05:19:30;5.90;;;1.60;;
27889;SDS011;15238;49.082;9.102;2023-07-13T05:21:31;3.78;;;1.60;;
27889;SDS011;15238;49.082;9.102;2023-07-13T05:23:32;7.05;;;1.95;;
27889;SDS011;15238;49.082;9.102;2023-07-13T05:25:34;2.67;;;1.45;;
27889;SDS011;15238;49.082;9.102;2023-07-13T05:27:35;5.70;;;1.77;;
27889;SDS011;15238;49.082;9.102;2023-07-13T05:29:35;4.05;;;1.58;;
27889;SDS011;15238;49.082;9.102;2023-07-13T05:31:36;4.60;;;1.60;;
27889;SDS011;15238;49.082;9.102;2023-07-13T05:33:37;4.43;;;1.83;;
27889;SDS011;15238;49.082;9.102;2023-07-13T05:35:37;8.23;;;1.73;;
27889;SDS011;15238;49.082;9.102;2023-07-13T05:37:38;5.00;;;2.00;;
27889;SDS011;15238;49.082;9.102;2023-07-13T05:39:39;6.72;;;1.55;;
27889;SDS011;15238;49.082;9.102;2023-07-13T05:41:40;4.30;;;1.10;;
27889;SDS011;15238;49.082;9.102;2023-07-13T05:43:40;4.15;;;1.10;;
27889;SDS011;15238;49.082;9.102;2023-07-13T05:45:41;3.38;;;1.50;;
27889;SDS011;15238;49.082;9.102;2023-07-13T05:47:42;2.28;;;1.15;;
27889;SDS011;15238;49.082;9.102;2023-07-13T05:49:43;5.07;;;1.83;;
27889;SDS011;15238;49.082;9.102;2023-07-13T05:51:44;2.22;;;1.35;;
27889;SDS011;15238;49.082;9.102;2023-07-13T05:53:44;2.35;;;1.33;;
27889;SDS011;15238;49.082;9.102;2023-07-13T05:55:45;5.43;;;1.27;;
27889;SDS011;15238;49.082;9.102;2023-07-13T05:57:50;4.07;;;1.45;;
27889;SDS011;15238;49.082;9.102;2023-07-13T05:59:51;7.13;;;1.45;;
27889;SDS011;15238;49.082;9.102;2023-07-13T06:01:52;4.68;;;1.55;;
27889;SDS011;15238;49.082;9.102;2023-07-13T06:03:52;8.52;;;1.50;;
27889;SDS011;15238;49.082;9.102;2023-07-13T06:05:53;5.13;;;1.23;;
27889;SDS011;15238;49.082;9.102;2023-07-13T06:07:53;10.32;;;2.38;;
27889;SDS011;15238;49.082;9.102;2023-07-13T06:09:54;12.75;;;1.85;;
27889;SDS011;15238;49.082;9.102;2023-07-13T06:11:55;8.35;;;1.88;;
27889;SDS011;15238;49.082;9.102;2023-07-13T06:13:56;2.92;;;1.40;;
27889;SDS011;15238;49.082;9.102;2023-07-13T06:15:57;5.53;;;1.60;;
27889;SDS011;15238;49.082;9.102;2023-07-13T06:17:57;3.42;;;1.55;;
27889;SDS011;15238;49.082;9.102;2023-07-13T06:19:58;7.75;;;2.08;;
27889;SDS011;15238;49.082;9.102;2023-07-13T06:21:58;4.13;;;2.20;;
27889;SDS011;15238;49.082;9.102;2023-07-13T06:23:59;5.55;;;1.88;;
27889;SDS011;15238;49.082;9.102;2023-07-13T06:25:59;5.53;;;2.22;;
27889;SDS011;15238;49.082;9.102;2023-07-13T06:28:00;6.57;;;2.35;;
27889;SDS011;15238;49.082;9.102;2023-07-13T06:30:00;3.83;;;1.83;;
27889;SDS011;15238;49.082;9.102;2023-07-13T06:32:01;5.20;;;1.80;;
27889;SDS011;15238;49.082;9.102;2023-07-13T06:34:01;5.78;;;2.05;;
27889;SDS011;15238;49.082;9.102;2023-07-13T06:36:03;3.90;;;2.00;;
27889;SDS011;15238;49.082;9.102;2023-07-13T06:38:05;5.60;;;1.58;;
27889;SDS011;15238;49.082;9.102;2023-07-13T06:40:06;9.52;;;2.25;;
27889;SDS011;15238;49.082;9.102;2023-07-13T06:42:07;10.65;;;2.00;;
27889;SDS011;15238;49.082;9.102;2023-07-13T06:44:07;5.82;;;1.95;;
27889;SDS011;15238;49.082;9.102;2023-07-13T06:46:08;5.57;;;2.00;;
27889;SDS011;15238;49.082;9.102;2023-07-13T06:48:10;2.70;;;1.50;;
27889;SDS011;15238;49.082;9.102;2023-07-13T06:50:10;7.72;;;1.70;;
27889;SDS011;15238;49.082;9.102;2023-07-13T06:52:11;5.75;;;1.38;;
27889;SDS011;15238;49.082;9.102;2023-07-13T06:54:11;6.38;;;1.52;;
27889;SDS011;15238;49.082;9.102;2023-07-13T06:56:13;4.95;;;1.20;;
27889;SDS011;15238;49.082;9.102;2023-07-13T06:58:17;5.40;;;1.48;;
27889;SDS011;15238;49.082;9.102;2023-07-13T07:00:18;7.28;;;1.60;;
27889;SDS011;15238;49.082;9.102;2023-07-13T07:02:19;6.13;;;1.02;;
27889;SDS011;15238;49.082;9.102;2023-07-13T07:04:19;8.32;;;1.85;;
27889;SDS011;15238;49.082;9.102;2023-07-13T07:06:20;8.65;;;2.05;;
27889;SDS011;15238;49.082;9.102;2023-07-13T07:08:23;10.27;;;1.42;;
27889;SDS011;15238;49.082;9.102;2023-07-13T07:10:24;7.93;;;1.80;;
27889;SDS011;15238;49.082;9.102;2023-07-13T07:12:25;8.82;;;1.35;;
27889;SDS011;15238;49.082;9.102;2023-07-13T07:14:25;1.77;;;0.90;;
27889;SDS011;15238;49.082;9.102;2023-07-13T07:16:26;3.15;;;0.90;;
27889;SDS011;15238;49.082;9.102;2023-07-13T07:18:26;6.68;;;1.30;;
27889;SDS011;15238;49.082;9.102;2023-07-13T07:20:27;7.78;;;1.58;;
27889;SDS011;15238;49.082;9.102;2023-07-13T07:22:27;3.55;;;1.10;;
27889;SDS011;15238;49.082;9.102;2023-07-13T07:24:28;3.70;;;1.40;;
27889;SDS011;15238;49.082;9.102;2023-07-13T07:26:29;4.32;;;1.48;;
27889;SDS011;15238;49.082;9.102;2023-07-13T07:28:29;5.25;;;1.10;;
27889;SDS011;15238;49.082;9.102;2023-07-13T07:30:30;5.45;;;1.42;;
27889;SDS011;15238;49.082;9.102;2023-07-13T07:32:31;2.17;;;1.00;;
27889;SDS011;15238;49.082;9.102;2023-07-13T07:34:32;3.30;;;0.85;;
27889;SDS011;15238;49.082;9.102;2023-07-13T07:36:33;3.05;;;1.20;;
27889;SDS011;15238;49.082;9.102;2023-07-13T07:38:34;3.72;;;0.90;;
27889;SDS011;15238;49.082;9.102;2023-07-13T07:40:38;6.25;;;1.20;;
27889;SDS011;15238;49.082;9.102;2023-07-13T07:42:40;1.67;;;0.95;;
27889;SDS011;15238;49.082;9.102;2023-07-13T07:44:40;4.93;;;1.13;;
27889;SDS011;15238;49.082;9.102;2023-07-13T07:46:41;2.63;;;0.77;;
27889;SDS011;15238;49.082;9.102;2023-07-13T07:48:42;4.43;;;0.73;;
27889;SDS011;15238;49.082;9.102;2023-07-13T07:50:42;6.82;;;1.00;;
27889;SDS011;15238;49.082;9.102;2023-07-13T07:52:43;2.03;;;0.55;;
27889;SDS011;15238;49.082;9.102;2023-07-13T07:54:44;5.88;;;1.00;;
27889;SDS011;15238;49.082;9.102;2023-07-13T07:56:44;3.05;;;0.80;;
27889;SDS011;15238;49.082;9.102;2023-07-13T07:58:45;6.03;;;0.90;;
27889;SDS011;15238;49.082;9.102;2023-07-13T08:00:45;6.47;;;0.95;;
27889;SDS011;15238;49.082;9.102;2023-07-13T08:02:47;2.13;;;0.80;;
27889;SDS011;15238;49.082;9.102;2023-07-13T08:04:48;6.45;;;1.48;;
27889;SDS011;15238;49.082;9.102;2023-07-13T08:06:48;2.65;;;0.80;;
27889;SDS011;15238;49.082;9.102;2023-07-13T08:08:49;2.83;;;0.88;;
27889;SDS011;15238;49.082;9.102;2023-07-13T08:10:50;4.13;;;0.80;;
27889;SDS011;15238;49.082;9.102;2023-07-13T08:12:50;4.15;;;0.82;;
27889;SDS011;15238;49.082;9.102;2023-07-13T08:14:51;12.57;;;1.08;;
27889;SDS011;15238;49.082;9.102;2023-07-13T08:16:57;3.42;;;0.80;;
27889;SDS011;15238;49.082;9.102;2023-07-13T08:18:58;4.03;;;1.00;;
27889;SDS011;15238;49.082;9.102;2023-07-13T08:21:04;3.03;;;0.93;;
27889;SDS011;15238;49.082;9.102;2023-07-13T08:23:06;3.33;;;0.98;;
27889;SDS011;15238;49.082;9.102;2023-07-13T08:25:08;4.25;;;0.95;;
27889;SDS011;15238;49.082;9.102;2023-07-13T08:27:09;2.10;;;0.80;;
27889;SDS011;15238;49.082;9.102;2023-07-13T08:29:11;3.80;;;0.60;;
27889;SDS011;15238;49.082;9.102;2023-07-13T08:31:12;2.85;;;1.10;;
27889;SDS011;15238;49.082;9.102;2023-07-13T08:33:13;3.25;;;0.77;;
27889;SDS011;15238;49.082;9.102;2023-07-13T08:35:17;10.73;;;1.52;;
27889;SDS011;15238;49.082;9.102;2023-07-13T08:37:17;3.55;;;0.90;;
27889;SDS011;15238;49.082;9.102;2023-07-13T08:39:19;1.88;;;1.00;;
27889;SDS011;15238;49.082;9.102;2023-07-13T08:41:20;2.70;;;0.80;;
27889;SDS011;15238;49.082;9.102;2023-07-13T08:43:28;4.00;;;0.82;;
27889;SDS011;15238;49.082;9.102;2023-07-13T08:45:37;5.43;;;0.80;;
27889;SDS011;15238;49.082;9.102;2023-07-13T08:50:02;9.48;;;1.40;;
27889;SDS011;15238;49.082;9.102;2023-07-13T08:52:05;3.55;;;0.77;;
27889;SDS011;15238;49.082;9.102;2023-07-13T08:54:21;5.55;;;1.20;;
27889;SDS011;15238;49.082;9.102;2023-07-13T08:56:29;3.40;;;0.93;;
27889;SDS011;15238;49.082;9.102;2023-07-13T08:58:31;2.88;;;0.93;;
27889;SDS011;15238;49.082;9.102;2023-07-13T09:02:58;2.53;;;1.00;;
27889;SDS011;15238;49.082;9.102;2023-07-13T09:12:11;4.70;;;0.82;;
27889;SDS011;15238;49.082;9.102;2023-07-13T09:16:47;3.33;;;0.82;;
27889;SDS011;15238;49.082;9.102;2023-07-13T09:18:49;2.80;;;0.75;;
27889;SDS011;15238;49.082;9.102;2023-07-13T09:20:57;3.42;;;1.02;;
27889;SDS011;15238;49.082;9.102;2023-07-13T09:23:04;4.50;;;1.08;;
27889;SDS011;15238;49.082;9.102;2023-07-13T09:27:38;4.10;;;0.90;;
27889;SDS011;15238;49.082;9.102;2023-07-13T09:29:41;3.95;;;0.80;;
27889;SDS011;15238;49.082;9.102;2023-07-13T09:31:49;4.15;;;1.13;;
27889;SDS011;15238;49.082;9.102;2023-07-13T09:33:55;2.63;;;0.93;;
27889;SDS011;15238;49.082;9.102;2023-07-13T09:35:58;3.38;;;1.15;;
27889;SDS011;15238;49.082;9.102;2023-07-13T09:38:02;2.65;;;0.90;;
27889;SDS011;15238;49.082;9.102;2023-07-13T09:40:20;1.63;;;0.93;;
27889;SDS011;15238;49.082;9.102;2023-07-13T09:42:28;2.08;;;0.70;;
27889;SDS011;15238;49.082;9.102;2023-07-13T09:44:35;5.22;;;0.90;;
27889;SDS011;15238;49.082;9.102;2023-07-13T09:46:53;3.10;;;0.82;;
27889;SDS011;15238;49.082;9.102;2023-07-13T09:48:55;1.73;;;0.93;;
27889;SDS011;15238;49.082;9.102;2023-07-13T09:50:56;6.10;;;1.88;;
27889;SDS011;15238;49.082;9.102;2023-07-13T09:53:04;2.75;;;0.95;;
27889;SDS011;15238;49.082;9.102;2023-07-13T09:55:25;3.75;;;0.90;;
27889;SDS011;15238;49.082;9.102;2023-07-13T09:57:35;3.17;;;0.82;;
27889;SDS011;15238;49.082;9.102;2023-07-13T09:59:37;4.18;;;1.15;;
27889;SDS011;15238;49.082;9.102;2023-07-13T10:01:41;4.03;;;1.05;;
27889;SDS011;15238;49.082;9.102;2023-07-13T10:03:51;4.53;;;0.98;;
27889;SDS011;15238;49.082;9.102;2023-07-13T10:05:53;1.92;;;0.75;;
27889;SDS011;15238;49.082;9.102;2023-07-13T10:07:59;4.10;;;1.00;;
27889;SDS011;15238;49.082;9.102;2023-07-13T10:10:00;5.25;;;1.27;;
27889;SDS011;15238;49.082;9.102;2023-07-13T10:12:01;4.45;;;1.10;;
27889;SDS011;15238;49.082;9.102;2023-07-13T10:14:02;1.92;;;0.90;;
27889;SDS011;15238;49.082;9.102;2023-07-13T10:16:17;2.67;;;0.93;;
27889;SDS011;15238;49.082;9.102;2023-07-13T10:18:18;4.18;;;0.85;;
27889;SDS011;15238;49.082;9.102;2023-07-13T10:20:21;5.07;;;0.90;;
27889;SDS011;15238;49.082;9.102;2023-07-13T10:22:32;3.10;;;0.88;;
27889;SDS011;15238;49.082;9.102;2023-07-13T10:24:42;5.53;;;0.88;;
27889;SDS011;15238;49.082;9.102;2023-07-13T10:26:54;2.30;;;0.90;;
27889;SDS011;15238;49.082;9.102;2023-07-13T10:29:10;4.28;;;0.65;;
27889;SDS011;15238;49.082;9.102;2023-07-13T10:31:14;4.00;;;1.02;;
27889;SDS011;15238;49.082;9.102;2023-07-13T10:33:15;2.63;;;0.70;;
27889;SDS011;15238;49.082;9.102;2023-07-13T10:35:17;12.60;;;2.70;;
27889;SDS011;15238;49.082;9.102;2023-07-13T10:37:24;2.28;;;0.77;;
27889;SDS011;15238;49.082;9.102;2023-07-13T10:39:29;4.73;;;0.93;;
27889;SDS011;15238;49.082;9.102;2023-07-13T10:41:31;3.78;;;1.00;;
27889;SDS011;15238;49.082;9.102;2023-07-13T10:43:53;3.10;;;0.70;;
27889;SDS011;15238;49.082;9.102;2023-07-13T10:45:57;3.53;;;0.90;;
27889;SDS011;15238;49.082;9.102;2023-07-13T10:47:59;5.03;;;0.90;;
27889;SDS011;15238;49.082;9.102;2023-07-13T10:50:00;4.70;;;0.88;;
27889;SDS011;15238;49.082;9.102;2023-07-13T10:52:03;2.83;;;0.80;;
27889;SDS011;15238;49.082;9.102;2023-07-13T10:54:17;3.85;;;1.08;;
27889;SDS011;15238;49.082;9.102;2023-07-13T10:56:28;4.47;;;1.00;;
27889;SDS011;15238;49.082;9.102;2023-07-13T10:58:34;3.63;;;1.08;;
27889;SDS011;15238;49.082;9.102;2023-07-13T11:00:46;3.45;;;1.20;;
27889;SDS011;15238;49.082;9.102;2023-07-13T11:03:00;3.80;;;1.00;;
27889;SDS011;15238;49.082;9.102;2023-07-13T11:05:13;2.47;;;0.98;;
27889;SDS011;15238;49.082;9.102;2023-07-13T11:07:29;3.97;;;1.00;;
27889;SDS011;15238;49.082;9.102;2023-07-13T11:11:37;3.00;;;0.60;;
27889;SDS011;15238;49.082;9.102;2023-07-13T11:18:00;3.67;;;0.80;;
27889;SDS011;15238;49.082;9.102;2023-07-13T11:22:13;2.83;;;1.00;;
27889;SDS011;15238;49.082;9.102;2023-07-13T11:24:17;3.03;;;0.80;;
27889;SDS011;15238;49.082;9.102;2023-07-13T11:28:43;5.40;;;1.10;;
27889;SDS011;15238;49.082;9.102;2023-07-13T11:35:13;6.82;;;1.17;;
27889;SDS011;15238;49.082;9.102;2023-07-13T11:37:19;2.55;;;1.02;;
27889;SDS011;15238;49.082;9.102;2023-07-13T11:39:21;4.22;;;1.58;;
27889;SDS011;15238;49.082;9.102;2023-07-13T11:41:42;4.55;;;1.20;;
27889;SDS011;15238;49.082;9.102;2023-07-13T11:43:45;2.67;;;0.80;;
27889;SDS011;15238;49.082;9.102;2023-07-13T11:45:49;3.55;;;0.77;;
27889;SDS011;15238;49.082;9.102;2023-07-13T11:47:50;4.57;;;0.73;;
27889;SDS011;15238;49.082;9.102;2023-07-13T11:49:52;3.63;;;0.98;;
27889;SDS011;15238;49.082;9.102;2023-07-13T11:51:58;3.60;;;1.23;;
27889;SDS011;15238;49.082;9.102;2023-07-13T11:54:05;6.32;;;1.13;;
27889;SDS011;15238;49.082;9.102;2023-07-13T11:56:13;5.10;;;0.88;;
27889;SDS011;15238;49.082;9.102;2023-07-13T11:58:16;2.85;;;1.00;;
27889;SDS011;15238;49.082;9.102;2023-07-13T12:00:22;7.38;;;1.10;;
27889;SDS011;15238;49.082;9.102;2023-07-13T12:04:32;6.90;;;0.80;;
27889;SDS011;15238;49.082;9.102;2023-07-13T12:06:34;1.67;;;0.68;;
27889;SDS011;15238;49.082;9.102;2023-07-13T12:08:39;4.35;;;0.88;;
27889;SDS011;15238;49.082;9.102;2023-07-13T12:10:42;2.40;;;0.98;;
27889;SDS011;15238;49.082;9.102;2023-07-13T12:12:48;2.40;;;0.88;;
27889;SDS011;15238;49.082;9.102;2023-07-13T12:14:56;2.00;;;0.80;;
27889;SDS011;15238;49.082;9.102;2023-07-13T12:16:57;4.88;;;0.77;;
27889;SDS011;15238;49.082;9.102;2023-07-13T12:18:58;5.13;;;0.82;;
27889;SDS011;15238;49.082;9.102;2023-07-13T12:21:00;4.40;;;0.90;;
27889;SDS011;15238;49.082;9.102;2023-07-13T12:23:00;2.72;;;0.90;;
27889;SDS011;15238;49.082;9.102;2023-07-13T12:25:02;1.00;;;0.70;;
27889;SDS011;15238;49.082;9.102;2023-07-13T12:27:05;4.78;;;0.80;;
27889;SDS011;15238;49.082;9.102;2023-07-13T12:29:06;4.78;;;1.27;;
27889;SDS011;15238;49.082;9.102;2023-07-13T12:31:18;3.63;;;0.90;;
27889;SDS011;15238;49.082;9.102;2023-07-13T12:33:27;3.50;;;1.00;;
27889;SDS011;15238;49.082;9.102;2023-07-13T12:35:29;2.10;;;1.20;;
27889;SDS011;15238;49.082;9.102;2023-07-13T12:37:33;3.47;;;0.85;;
27889;SDS011;15238;49.082;9.102;2023-07-13T12:39:38;3.55;;;0.95;;
27889;SDS011;15238;49.082;9.102;2023-07-13T12:41:46;1.80;;;1.10;;
27889;SDS011;15238;49.082;9.102;2023-07-13T12:43:48;3.78;;;1.02;;
27889;SDS011;15238;49.082;9.102;2023-07-13T12:48:04;3.38;;;0.88;;
27889;SDS011;15238;49.082;9.102;2023-07-13T12:50:16;7.75;;;1.00;;
27889;SDS011;15238;49.082;9.102;2023-07-13T12:52:23;2.42;;;0.60;;
27889;SDS011;15238;49.082;9.102;2023-07-13T12:54:32;4.30;;;1.20;;
27889;SDS011;15238;49.082;9.102;2023-07-13T12:56:33;4.38;;;1.13;;